GIA1 LFPO-WIHH
Flight info
| Callsign | GIA1 |
|---|---|
| Flight time | N/A |
| Altitude | 31000 |
| Route | LATRA DCT LAMUT DCT UTUVA DCT TITVA DCT NOQAS DCT OTROT DCT RETNO DCT KOLON DCT RAPUR DCT RATAP DCT BTA DCT DOKAR DCT SUNEV DCT PNZ DCT CDC DCT RUTOM DCT SOKRI DCT PAXIS L607 NABSI P557 OBRAN/N0495F330 L321 REXUM M872 PMA Y214 RAPMA DCT ULONO DCT DAPOL L692 GISKA N569 UMILA/N0493F350 N569 LOTAV M300 VASTU P895 BIKOK N640 KAT M766 OBDAL/N0493F370 M766 PAGAI G461 BIDAK |
| Aircraft | B77W/H-SDE1E2E3FGHIJ2J3J4J5M1RWXY/LB1D1 |
Departure
| Time | N/A |
|---|---|
| Airport | Paris-Orly Airport (LFPO) |
Arrival
| Time | 2026-04-15 20:27 |
|---|---|
| Airport | Halim Perdanakusuma International Airport (WIHH) |
| Time | Latitude | Longitude | Altitude | Speed | Heading |
|---|---|---|---|---|---|
| 2026-04-15 15:42 | 10.53400 | 75.90796 | 34868 ft | 503 kts | 130° |
| 2026-04-15 15:43 | 10.48942 | 75.96218 | 34870 ft | 503 kts | 131° |
| 2026-04-15 15:43 | 10.44457 | 76.01670 | 34872 ft | 503 kts | 130° |
| 2026-04-15 15:44 | 10.39971 | 76.07122 | 34870 ft | 503 kts | 130° |
| 2026-04-15 15:44 | 10.35482 | 76.12574 | 34867 ft | 503 kts | 130° |
| 2026-04-15 15:45 | 10.31000 | 76.18014 | 34875 ft | 503 kts | 130° |
| 2026-04-15 15:45 | 10.26514 | 76.23457 | 34873 ft | 503 kts | 130° |
| 2026-04-15 15:46 | 10.22025 | 76.28903 | 34882 ft | 502 kts | 130° |
| 2026-04-15 15:46 | 10.17540 | 76.34341 | 34884 ft | 502 kts | 130° |
| 2026-04-15 15:47 | 10.13045 | 76.39779 | 34885 ft | 502 kts | 130° |
| 2026-04-15 15:47 | 10.08534 | 76.45200 | 34884 ft | 502 kts | 131° |
| 2026-04-15 15:48 | 10.04019 | 76.50619 | 34882 ft | 502 kts | 131° |
| 2026-04-15 15:48 | 9.99537 | 76.56001 | 34881 ft | 502 kts | 131° |
| 2026-04-15 15:49 | 9.95025 | 76.61420 | 34877 ft | 502 kts | 131° |
| 2026-04-15 15:49 | 9.90512 | 76.66838 | 34894 ft | 502 kts | 130° |
| 2026-04-15 15:50 | 9.85999 | 76.72254 | 34887 ft | 502 kts | 130° |
| 2026-04-15 15:50 | 9.81485 | 76.77668 | 34887 ft | 502 kts | 130° |
| 2026-04-15 15:51 | 9.77003 | 76.83041 | 34911 ft | 502 kts | 130° |
| 2026-04-15 15:51 | 9.72482 | 76.88458 | 34904 ft | 502 kts | 131° |
| 2026-04-15 15:52 | 9.67966 | 76.93867 | 34928 ft | 503 kts | 131° |
| 2026-04-15 15:52 | 9.63443 | 76.99282 | 34928 ft | 503 kts | 131° |
| 2026-04-15 15:53 | 9.58915 | 77.04700 | 34929 ft | 504 kts | 131° |
| 2026-04-15 15:53 | 9.54404 | 77.10096 | 34930 ft | 503 kts | 130° |
| 2026-04-15 15:54 | 9.49881 | 77.15503 | 34923 ft | 502 kts | 130° |
| 2026-04-15 15:54 | 9.45371 | 77.20893 | 34926 ft | 500 kts | 130° |
| 2026-04-15 15:55 | 9.40876 | 77.26262 | 34908 ft | 499 kts | 130° |
| 2026-04-15 15:55 | 9.36371 | 77.31641 | 34914 ft | 500 kts | 130° |
| 2026-04-15 15:56 | 9.31865 | 77.37020 | 34910 ft | 500 kts | 131° |
| 2026-04-15 15:56 | 9.28124 | 77.41483 | 34890 ft | 501 kts | 130° |
| 2026-04-15 15:57 | 9.23615 | 77.46861 | 34886 ft | 501 kts | 131° |
| 2026-04-15 15:57 | 9.18358 | 77.53128 | 34871 ft | 502 kts | 130° |
| 2026-04-15 15:58 | 9.14570 | 77.57643 | 34858 ft | 503 kts | 131° |
| 2026-04-15 15:58 | 9.10069 | 77.63007 | 34855 ft | 503 kts | 130° |
| 2026-04-15 15:59 | 9.05536 | 77.68410 | 34854 ft | 503 kts | 130° |
| 2026-04-15 15:59 | 9.01007 | 77.73807 | 34847 ft | 503 kts | 130° |
| 2026-04-15 16:00 | 8.96474 | 77.79205 | 34847 ft | 503 kts | 130° |
| 2026-04-15 16:00 | 8.91941 | 77.84601 | 34856 ft | 503 kts | 130° |
| 2026-04-15 16:01 | 8.87414 | 77.89988 | 34856 ft | 502 kts | 130° |
| 2026-04-15 16:01 | 8.82888 | 77.95372 | 34855 ft | 502 kts | 130° |
| 2026-04-15 16:02 | 8.78393 | 78.00716 | 34854 ft | 502 kts | 130° |
| 2026-04-15 16:02 | 8.73865 | 78.06098 | 34855 ft | 502 kts | 130° |
| 2026-04-15 16:03 | 8.69334 | 78.11480 | 34858 ft | 503 kts | 130° |
| 2026-04-15 16:03 | 8.64796 | 78.16869 | 34860 ft | 503 kts | 130° |
| 2026-04-15 16:04 | 8.60253 | 78.22262 | 34853 ft | 504 kts | 130° |
| 2026-04-15 16:04 | 8.55705 | 78.27659 | 34856 ft | 504 kts | 130° |
| 2026-04-15 16:05 | 8.51161 | 78.33048 | 34868 ft | 503 kts | 130° |
| 2026-04-15 16:05 | 8.46629 | 78.38421 | 34855 ft | 502 kts | 130° |
| 2026-04-15 16:06 | 8.42107 | 78.43781 | 34857 ft | 500 kts | 130° |
| 2026-04-15 16:06 | 8.37627 | 78.49089 | 34861 ft | 499 kts | 130° |
| 2026-04-15 16:07 | 8.33131 | 78.54415 | 34858 ft | 498 kts | 130° |
| 2026-04-15 16:08 | 8.26354 | 78.62385 | 34864 ft | 498 kts | 131° |
| 2026-04-15 16:08 | 8.21709 | 78.67594 | 34868 ft | 499 kts | 132° |
| 2026-04-15 16:09 | 8.17044 | 78.72786 | 34875 ft | 500 kts | 132° |
| 2026-04-15 16:09 | 8.12385 | 78.78001 | 34879 ft | 500 kts | 132° |
| 2026-04-15 16:10 | 8.07764 | 78.83191 | 34874 ft | 500 kts | 132° |
| 2026-04-15 16:10 | 8.03119 | 78.88409 | 34876 ft | 500 kts | 132° |
| 2026-04-15 16:11 | 7.98471 | 78.93627 | 34877 ft | 499 kts | 132° |
| 2026-04-15 16:11 | 7.93824 | 78.98840 | 34880 ft | 499 kts | 132° |
| 2026-04-15 16:12 | 7.89181 | 79.04048 | 34881 ft | 499 kts | 132° |
| 2026-04-15 16:12 | 7.84537 | 79.09254 | 34881 ft | 499 kts | 132° |
| 2026-04-15 16:13 | 7.79888 | 79.14465 | 34875 ft | 499 kts | 132° |
| 2026-04-15 16:13 | 7.75271 | 79.19638 | 34876 ft | 499 kts | 132° |
| 2026-04-15 16:14 | 7.70624 | 79.24844 | 34876 ft | 500 kts | 131° |
| 2026-04-15 16:14 | 7.66004 | 79.30089 | 34875 ft | 500 kts | 131° |
| 2026-04-15 16:15 | 7.61402 | 79.35351 | 34873 ft | 500 kts | 131° |
| 2026-04-15 16:15 | 7.56797 | 79.40607 | 34874 ft | 500 kts | 131° |
| 2026-04-15 16:16 | 7.52183 | 79.45863 | 34871 ft | 500 kts | 131° |
| 2026-04-15 16:16 | 7.47597 | 79.51083 | 34881 ft | 500 kts | 131° |
| 2026-04-15 16:17 | 7.42987 | 79.56329 | 34876 ft | 500 kts | 131° |
| 2026-04-15 16:17 | 7.38382 | 79.61569 | 34870 ft | 499 kts | 131° |
| 2026-04-15 16:18 | 7.33783 | 79.66800 | 34868 ft | 498 kts | 131° |
| 2026-04-15 16:18 | 7.29181 | 79.72032 | 34862 ft | 498 kts | 131° |
| 2026-04-15 16:19 | 7.24587 | 79.77255 | 34860 ft | 498 kts | 131° |
| 2026-04-15 16:19 | 7.19998 | 79.82470 | 34857 ft | 498 kts | 131° |
| 2026-04-15 16:20 | 7.15728 | 79.87957 | 34856 ft | 498 kts | 122° |
| 2026-04-15 16:20 | 7.12478 | 79.94061 | 34864 ft | 498 kts | 115° |
| 2026-04-15 16:21 | 7.09461 | 80.00356 | 34867 ft | 499 kts | 116° |
| 2026-04-15 16:21 | 7.06419 | 80.06638 | 34868 ft | 499 kts | 116° |
| 2026-04-15 16:22 | 7.03348 | 80.12911 | 34874 ft | 499 kts | 116° |
| 2026-04-15 16:22 | 7.00268 | 80.19179 | 34895 ft | 499 kts | 116° |
| 2026-04-15 16:23 | 6.97193 | 80.25437 | 34899 ft | 499 kts | 116° |
| 2026-04-15 16:23 | 6.94116 | 80.31703 | 34927 ft | 499 kts | 116° |
| 2026-04-15 16:24 | 6.91035 | 80.37974 | 34920 ft | 500 kts | 116° |
| 2026-04-15 16:24 | 6.87965 | 80.44218 | 34925 ft | 500 kts | 116° |
| 2026-04-15 16:25 | 6.84878 | 80.50498 | 34944 ft | 501 kts | 116° |
| 2026-04-15 16:25 | 6.81787 | 80.56781 | 34942 ft | 501 kts | 116° |
| 2026-04-15 16:26 | 6.78693 | 80.63070 | 34961 ft | 502 kts | 116° |
| 2026-04-15 16:26 | 6.75589 | 80.69377 | 34960 ft | 502 kts | 116° |
| 2026-04-15 16:27 | 6.72475 | 80.75673 | 34947 ft | 502 kts | 116° |
| 2026-04-15 16:27 | 6.69328 | 80.81944 | 34943 ft | 501 kts | 116° |
| 2026-04-15 16:28 | 6.66201 | 80.88165 | 34946 ft | 501 kts | 116° |
| 2026-04-15 16:28 | 6.63065 | 80.94416 | 34937 ft | 500 kts | 116° |
| 2026-04-15 16:29 | 6.59929 | 81.00670 | 34916 ft | 500 kts | 116° |
| 2026-04-15 16:29 | 6.56800 | 81.06911 | 34910 ft | 500 kts | 116° |
| 2026-04-15 16:30 | 6.53667 | 81.13155 | 34909 ft | 500 kts | 116° |
| 2026-04-15 16:30 | 6.50533 | 81.19399 | 34910 ft | 500 kts | 116° |
| 2026-04-15 16:31 | 6.47401 | 81.25637 | 34905 ft | 500 kts | 116° |
| 2026-04-15 16:31 | 6.44266 | 81.31878 | 34900 ft | 500 kts | 116° |
| 2026-04-15 16:32 | 6.41148 | 81.38085 | 34900 ft | 500 kts | 116° |
| 2026-04-15 16:32 | 6.38008 | 81.44332 | 34896 ft | 501 kts | 117° |
| 2026-04-15 16:33 | 6.34859 | 81.50596 | 34901 ft | 502 kts | 117° |
| 2026-04-15 16:33 | 6.31741 | 81.56886 | 34897 ft | 503 kts | 116° |
| 2026-04-15 16:34 | 6.28740 | 81.63254 | 34900 ft | 504 kts | 115° |
| 2026-04-15 16:34 | 6.25750 | 81.69630 | 34890 ft | 505 kts | 115° |
| 2026-04-15 16:35 | 6.22734 | 81.76006 | 34892 ft | 505 kts | 116° |
| 2026-04-15 16:35 | 6.19709 | 81.82380 | 34898 ft | 505 kts | 116° |
| 2026-04-15 16:36 | 6.16706 | 81.88709 | 34892 ft | 505 kts | 116° |
| 2026-04-15 16:36 | 6.13686 | 81.95073 | 34898 ft | 504 kts | 116° |
| 2026-04-15 16:37 | 6.10677 | 82.01438 | 34891 ft | 504 kts | 115° |
| 2026-04-15 16:37 | 6.07680 | 82.07813 | 34900 ft | 504 kts | 115° |
| 2026-04-15 16:38 | 6.04688 | 82.14181 | 34894 ft | 504 kts | 115° |
| 2026-04-15 16:38 | 6.01691 | 82.20549 | 34899 ft | 504 kts | 116° |
| 2026-04-15 16:39 | 5.98695 | 82.26912 | 34900 ft | 503 kts | 116° |
| 2026-04-15 16:39 | 5.95700 | 82.33269 | 34897 ft | 503 kts | 116° |
| 2026-04-15 16:40 | 5.92707 | 82.39618 | 34904 ft | 503 kts | 116° |
| 2026-04-15 16:40 | 5.89717 | 82.45961 | 34896 ft | 502 kts | 116° |
| 2026-04-15 16:41 | 5.86744 | 82.52265 | 34896 ft | 502 kts | 116° |
| 2026-04-15 16:41 | 5.83755 | 82.58600 | 34895 ft | 502 kts | 116° |
| 2026-04-15 16:42 | 5.80764 | 82.64938 | 34900 ft | 502 kts | 116° |
| 2026-04-15 16:42 | 5.77775 | 82.71270 | 34897 ft | 502 kts | 116° |
| 2026-04-15 16:43 | 5.74786 | 82.77600 | 34900 ft | 502 kts | 116° |
| 2026-04-15 16:43 | 5.71793 | 82.83935 | 34899 ft | 502 kts | 116° |
| 2026-04-15 16:44 | 5.68800 | 82.90269 | 34895 ft | 502 kts | 116° |
| 2026-04-15 16:44 | 5.65807 | 82.96601 | 34892 ft | 502 kts | 116° |
| 2026-04-15 16:45 | 5.62812 | 83.02933 | 34899 ft | 502 kts | 116° |
| 2026-04-15 16:45 | 5.60322 | 83.08197 | 34901 ft | 502 kts | 116° |
| 2026-04-15 16:46 | 5.56840 | 83.15557 | 34897 ft | 502 kts | 116° |
| 2026-04-15 16:46 | 5.54329 | 83.20861 | 34903 ft | 502 kts | 116° |
| 2026-04-15 16:47 | 5.51327 | 83.27202 | 34896 ft | 502 kts | 116° |
| 2026-04-15 16:47 | 5.48330 | 83.33529 | 34897 ft | 502 kts | 116° |
| 2026-04-15 16:48 | 5.45332 | 83.39857 | 34894 ft | 502 kts | 116° |
| 2026-04-15 16:48 | 5.42354 | 83.46140 | 34900 ft | 501 kts | 116° |
| 2026-04-15 16:49 | 5.39358 | 83.52462 | 34897 ft | 501 kts | 116° |
| 2026-04-15 16:49 | 5.36364 | 83.58775 | 34902 ft | 501 kts | 116° |
| 2026-04-15 16:50 | 5.33369 | 83.65089 | 34898 ft | 501 kts | 116° |
| 2026-04-15 16:50 | 5.30378 | 83.71392 | 34899 ft | 500 kts | 116° |
| 2026-04-15 16:51 | 5.27386 | 83.77695 | 34898 ft | 500 kts | 116° |
| 2026-04-15 16:51 | 5.24391 | 83.84005 | 34898 ft | 501 kts | 116° |
| 2026-04-15 16:52 | 5.21396 | 83.90311 | 34902 ft | 501 kts | 115° |
| 2026-04-15 16:52 | 5.18401 | 83.96616 | 34899 ft | 501 kts | 115° |
| 2026-04-15 16:53 | 5.15390 | 84.02920 | 34898 ft | 500 kts | 116° |
| 2026-04-15 16:53 | 5.12314 | 84.09179 | 34897 ft | 500 kts | 116° |
| 2026-04-15 16:54 | 5.09246 | 84.15380 | 34899 ft | 499 kts | 116° |
| 2026-04-15 16:54 | 5.06170 | 84.21619 | 34897 ft | 499 kts | 116° |
| 2026-04-15 16:55 | 5.03098 | 84.27865 | 34902 ft | 499 kts | 116° |
| 2026-04-15 16:55 | 5.00025 | 84.34115 | 34896 ft | 499 kts | 116° |
| 2026-04-15 16:56 | 4.96959 | 84.40350 | 34900 ft | 498 kts | 116° |
| 2026-04-15 16:56 | 4.93889 | 84.46589 | 34899 ft | 498 kts | 116° |
| 2026-04-15 16:57 | 4.90821 | 84.52821 | 34900 ft | 498 kts | 116° |
| 2026-04-15 16:57 | 4.87772 | 84.59015 | 34898 ft | 498 kts | 116° |
| 2026-04-15 16:58 | 4.84702 | 84.65248 | 34897 ft | 498 kts | 116° |
| 2026-04-15 16:58 | 4.81633 | 84.71479 | 34902 ft | 498 kts | 116° |
| 2026-04-15 16:59 | 4.78568 | 84.77700 | 34898 ft | 498 kts | 116° |
| 2026-04-15 16:59 | 4.75501 | 84.83923 | 34899 ft | 497 kts | 116° |
| 2026-04-15 17:00 | 4.72434 | 84.90142 | 34898 ft | 497 kts | 116° |
| 2026-04-15 17:00 | 4.69368 | 84.96361 | 34903 ft | 497 kts | 116° |
| 2026-04-15 17:01 | 4.66300 | 85.02579 | 34901 ft | 497 kts | 116° |
| 2026-04-15 17:01 | 4.63251 | 85.08758 | 34897 ft | 498 kts | 116° |
| 2026-04-15 17:02 | 4.60181 | 85.14980 | 34902 ft | 498 kts | 116° |
| 2026-04-15 17:02 | 4.57106 | 85.21209 | 34902 ft | 498 kts | 116° |
| 2026-04-15 17:03 | 4.54035 | 85.27428 | 34905 ft | 498 kts | 116° |
| 2026-04-15 17:03 | 4.50961 | 85.33652 | 34902 ft | 498 kts | 116° |
| 2026-04-15 17:04 | 4.47890 | 85.39867 | 34903 ft | 498 kts | 116° |
| 2026-04-15 17:04 | 4.44839 | 85.46041 | 34900 ft | 498 kts | 116° |
| 2026-04-15 17:05 | 4.41760 | 85.52271 | 34902 ft | 498 kts | 116° |
| 2026-04-15 17:05 | 4.38684 | 85.58491 | 34906 ft | 498 kts | 116° |
| 2026-04-15 17:06 | 4.35606 | 85.64716 | 34903 ft | 499 kts | 116° |
| 2026-04-15 17:06 | 4.32522 | 85.70950 | 34904 ft | 499 kts | 116° |
| 2026-04-15 17:07 | 4.29437 | 85.77186 | 34901 ft | 499 kts | 116° |
| 2026-04-15 17:07 | 4.26353 | 85.83416 | 34901 ft | 499 kts | 116° |
| 2026-04-15 17:08 | 4.23269 | 85.89646 | 34903 ft | 499 kts | 116° |
| 2026-04-15 17:08 | 4.20200 | 85.95846 | 34901 ft | 499 kts | 116° |
| 2026-04-15 17:09 | 4.17115 | 86.02073 | 34904 ft | 499 kts | 116° |
| 2026-04-15 17:09 | 4.14029 | 86.08304 | 34904 ft | 499 kts | 116° |
| 2026-04-15 17:10 | 4.10939 | 86.14538 | 34902 ft | 499 kts | 116° |
| 2026-04-15 17:10 | 4.07856 | 86.20759 | 34900 ft | 499 kts | 116° |
| 2026-04-15 17:11 | 4.04769 | 86.26987 | 34906 ft | 499 kts | 116° |
| 2026-04-15 17:11 | 4.01682 | 86.33212 | 34901 ft | 499 kts | 116° |
| 2026-04-15 17:12 | 3.97045 | 86.42561 | 34903 ft | 499 kts | 116° |
| 2026-04-15 17:12 | 3.93983 | 86.48734 | 34901 ft | 500 kts | 116° |
| 2026-04-15 17:13 | 3.90888 | 86.54969 | 34903 ft | 500 kts | 116° |
| 2026-04-15 17:13 | 3.87806 | 86.61180 | 34901 ft | 500 kts | 116° |
| 2026-04-15 17:14 | 3.84698 | 86.67439 | 34899 ft | 500 kts | 116° |
| 2026-04-15 17:14 | 3.81606 | 86.73667 | 34903 ft | 499 kts | 116° |
| 2026-04-15 17:15 | 3.78513 | 86.79894 | 34897 ft | 499 kts | 116° |
| 2026-04-15 17:15 | 3.75439 | 86.86083 | 34899 ft | 499 kts | 116° |
| 2026-04-15 17:16 | 3.72341 | 86.92317 | 34896 ft | 499 kts | 116° |
| 2026-04-15 17:16 | 3.69247 | 86.98542 | 34895 ft | 499 kts | 116° |
| 2026-04-15 17:17 | 3.66152 | 87.04769 | 34896 ft | 499 kts | 116° |
| 2026-04-15 17:17 | 3.63056 | 87.10995 | 34899 ft | 499 kts | 116° |
| 2026-04-15 17:18 | 3.59981 | 87.17179 | 34899 ft | 499 kts | 116° |
| 2026-04-15 17:18 | 3.56881 | 87.23410 | 34898 ft | 499 kts | 116° |
| 2026-04-15 17:19 | 3.53788 | 87.29627 | 34902 ft | 499 kts | 116° |
| 2026-04-15 17:19 | 3.50692 | 87.35850 | 34903 ft | 499 kts | 116° |
| 2026-04-15 17:20 | 3.47597 | 87.42068 | 34897 ft | 498 kts | 116° |
| 2026-04-15 17:20 | 3.44526 | 87.48239 | 34898 ft | 498 kts | 116° |
| 2026-04-15 17:21 | 3.41436 | 87.54445 | 34900 ft | 498 kts | 116° |
| 2026-04-15 17:21 | 3.38342 | 87.60657 | 34898 ft | 498 kts | 116° |
| 2026-04-15 17:22 | 3.35255 | 87.66857 | 34899 ft | 498 kts | 116° |
| 2026-04-15 17:22 | 3.32164 | 87.73064 | 34900 ft | 498 kts | 116° |
| 2026-04-15 17:23 | 3.29009 | 87.79248 | 35023 ft | 500 kts | 117° |
| 2026-04-15 17:23 | 3.27382 | 87.82324 | 35350 ft | 498 kts | 117° |
| 2026-04-15 17:23 | 3.25760 | 87.85373 | 35747 ft | 495 kts | 118° |
| 2026-04-15 17:24 | 3.24150 | 87.88405 | 36115 ft | 492 kts | 118° |
| 2026-04-15 17:24 | 3.22566 | 87.91395 | 36463 ft | 490 kts | 117° |
| 2026-04-15 17:24 | 3.20974 | 87.94411 | 36781 ft | 489 kts | 117° |
| 2026-04-15 17:24 | 3.19386 | 87.97427 | 36846 ft | 492 kts | 117° |
| 2026-04-15 17:25 | 3.16199 | 88.03487 | 36898 ft | 491 kts | 117° |
| 2026-04-15 17:25 | 3.13030 | 88.09511 | 36898 ft | 488 kts | 118° |
| 2026-04-15 17:26 | 3.09881 | 88.15497 | 36901 ft | 485 kts | 118° |
| 2026-04-15 17:26 | 3.06743 | 88.21457 | 36900 ft | 484 kts | 118° |
| 2026-04-15 17:27 | 3.03607 | 88.27414 | 36897 ft | 484 kts | 118° |
| 2026-04-15 17:27 | 3.00465 | 88.33381 | 36899 ft | 485 kts | 118° |
| 2026-04-15 17:28 | 2.97334 | 88.39327 | 36901 ft | 487 kts | 118° |
| 2026-04-15 17:28 | 2.94171 | 88.45334 | 36902 ft | 488 kts | 118° |
| 2026-04-15 17:29 | 2.91066 | 88.51388 | 36899 ft | 490 kts | 116° |
| 2026-04-15 17:29 | 2.88070 | 88.57509 | 36900 ft | 490 kts | 116° |
| 2026-04-15 17:30 | 2.85074 | 88.63643 | 36902 ft | 490 kts | 116° |
| 2026-04-15 17:30 | 2.82061 | 88.69768 | 36899 ft | 490 kts | 116° |
| 2026-04-15 17:31 | 2.79042 | 88.75882 | 36897 ft | 490 kts | 116° |
| 2026-04-15 17:31 | 2.76044 | 88.81948 | 36899 ft | 489 kts | 116° |
| 2026-04-15 17:32 | 2.73030 | 88.88049 | 36896 ft | 489 kts | 116° |
| 2026-04-15 17:32 | 2.70021 | 88.94139 | 36898 ft | 488 kts | 116° |
| 2026-04-15 17:33 | 2.67010 | 89.00234 | 36899 ft | 488 kts | 116° |
| 2026-04-15 17:33 | 2.64006 | 89.06314 | 36898 ft | 488 kts | 117° |
| 2026-04-15 17:34 | 2.61507 | 89.11369 | 36894 ft | 488 kts | 117° |
| 2026-04-15 17:34 | 2.58500 | 89.17453 | 36898 ft | 488 kts | 117° |
| 2026-04-15 17:35 | 2.55492 | 89.23537 | 36901 ft | 488 kts | 117° |
| 2026-04-15 17:35 | 2.52482 | 89.29624 | 36894 ft | 488 kts | 117° |
| 2026-04-15 17:36 | 2.49492 | 89.35673 | 36899 ft | 488 kts | 117° |
| 2026-04-15 17:36 | 2.46479 | 89.41764 | 36898 ft | 488 kts | 117° |
| 2026-04-15 17:37 | 2.43465 | 89.47857 | 36897 ft | 488 kts | 117° |
| 2026-04-15 17:37 | 2.40447 | 89.53958 | 36896 ft | 489 kts | 117° |
| 2026-04-15 17:38 | 2.37432 | 89.60053 | 36898 ft | 489 kts | 117° |
| 2026-04-15 17:38 | 2.34419 | 89.66144 | 36892 ft | 489 kts | 117° |
| 2026-04-15 17:39 | 2.31403 | 89.72239 | 36898 ft | 489 kts | 117° |
| 2026-04-15 17:39 | 2.28409 | 89.78288 | 36903 ft | 489 kts | 117° |
| 2026-04-15 17:40 | 2.25385 | 89.84386 | 36897 ft | 489 kts | 117° |
| 2026-04-15 17:40 | 2.22363 | 89.90476 | 36896 ft | 489 kts | 117° |
| 2026-04-15 17:41 | 2.19343 | 89.96566 | 36896 ft | 488 kts | 117° |
| 2026-04-15 17:41 | 2.16327 | 90.02649 | 36898 ft | 488 kts | 117° |
| 2026-04-15 17:42 | 2.13311 | 90.08731 | 36897 ft | 488 kts | 117° |
| 2026-04-15 17:42 | 2.10298 | 90.14805 | 36898 ft | 487 kts | 117° |
| 2026-04-15 17:43 | 2.07291 | 90.20867 | 36898 ft | 487 kts | 117° |
| 2026-04-15 17:43 | 2.04283 | 90.26929 | 36898 ft | 486 kts | 117° |
| 2026-04-15 17:44 | 2.01299 | 90.32943 | 36899 ft | 486 kts | 117° |
| 2026-04-15 17:44 | 1.98293 | 90.39001 | 36902 ft | 486 kts | 117° |
| 2026-04-15 17:45 | 1.95289 | 90.45053 | 36900 ft | 485 kts | 117° |
| 2026-04-15 17:45 | 1.92287 | 90.51102 | 36898 ft | 485 kts | 117° |
| 2026-04-15 17:46 | 1.89289 | 90.57143 | 36900 ft | 485 kts | 117° |
| 2026-04-15 17:46 | 1.86295 | 90.63173 | 36897 ft | 484 kts | 117° |
| 2026-04-15 17:47 | 1.83321 | 90.69163 | 36899 ft | 484 kts | 117° |
| 2026-04-15 17:47 | 1.80329 | 90.75189 | 36899 ft | 483 kts | 117° |
| 2026-04-15 17:48 | 1.77341 | 90.81206 | 36902 ft | 483 kts | 117° |
| 2026-04-15 17:48 | 1.74352 | 90.87223 | 36897 ft | 483 kts | 117° |
| 2026-04-15 17:49 | 1.71369 | 90.93231 | 36899 ft | 482 kts | 117° |
| 2026-04-15 17:49 | 1.68384 | 90.99240 | 36898 ft | 482 kts | 117° |
| 2026-04-15 17:50 | 1.65400 | 91.05247 | 36901 ft | 482 kts | 117° |
| 2026-04-15 17:50 | 1.62418 | 91.11247 | 36902 ft | 482 kts | 117° |
| 2026-04-15 17:51 | 1.59436 | 91.17249 | 36905 ft | 482 kts | 117° |
| 2026-04-15 17:51 | 1.56451 | 91.23257 | 36899 ft | 482 kts | 117° |
| 2026-04-15 17:52 | 1.53486 | 91.29224 | 36897 ft | 482 kts | 117° |
| 2026-04-15 17:52 | 1.50501 | 91.35230 | 36900 ft | 482 kts | 117° |
| 2026-04-15 17:53 | 1.47517 | 91.41233 | 36900 ft | 482 kts | 117° |
| 2026-04-15 17:53 | 1.44534 | 91.47235 | 36902 ft | 482 kts | 117° |
| 2026-04-15 17:54 | 1.41548 | 91.53240 | 36900 ft | 482 kts | 117° |
| 2026-04-15 17:54 | 1.38569 | 91.59232 | 36897 ft | 481 kts | 117° |
| 2026-04-15 17:55 | 1.35588 | 91.65228 | 36897 ft | 481 kts | 117° |
| 2026-04-15 17:55 | 1.32633 | 91.71172 | 36898 ft | 481 kts | 117° |
| 2026-04-15 17:56 | 1.29657 | 91.77158 | 36902 ft | 481 kts | 117° |
| 2026-04-15 17:56 | 1.26680 | 91.83144 | 36900 ft | 481 kts | 117° |
| 2026-04-15 17:57 | 1.23704 | 91.89129 | 36899 ft | 480 kts | 117° |
| 2026-04-15 17:57 | 1.20729 | 91.95114 | 36899 ft | 481 kts | 117° |
| 2026-04-15 17:58 | 1.17756 | 92.01095 | 36896 ft | 481 kts | 116° |
| 2026-04-15 17:58 | 1.14817 | 92.07107 | 36894 ft | 481 kts | 116° |
| 2026-04-15 17:59 | 1.11922 | 92.13074 | 36896 ft | 481 kts | 116° |
| 2026-04-15 17:59 | 1.09000 | 92.19090 | 36896 ft | 481 kts | 116° |
| 2026-04-15 18:00 | 1.06072 | 92.25105 | 36896 ft | 481 kts | 116° |
| 2026-04-15 18:00 | 1.03146 | 92.31113 | 36898 ft | 481 kts | 116° |
| 2026-04-15 18:01 | 1.00215 | 92.37131 | 36896 ft | 481 kts | 116° |
| 2026-04-15 18:01 | 0.97287 | 92.43144 | 36892 ft | 481 kts | 116° |
| 2026-04-15 18:02 | 0.94362 | 92.49150 | 36894 ft | 481 kts | 116° |
| 2026-04-15 18:02 | 0.91436 | 92.55156 | 36893 ft | 481 kts | 116° |
| 2026-04-15 18:03 | 0.88512 | 92.61160 | 36893 ft | 481 kts | 116° |
| 2026-04-15 18:03 | 0.85585 | 92.67169 | 36895 ft | 480 kts | 116° |
| 2026-04-15 18:04 | 0.82658 | 92.73177 | 36895 ft | 481 kts | 116° |
| 2026-04-15 18:04 | 0.79752 | 92.79142 | 36891 ft | 481 kts | 116° |
| 2026-04-15 18:05 | 0.76827 | 92.85147 | 36887 ft | 481 kts | 116° |
| 2026-04-15 18:05 | 0.73901 | 92.91153 | 36889 ft | 481 kts | 116° |
| 2026-04-15 18:06 | 0.70970 | 92.97168 | 36888 ft | 481 kts | 116° |
| 2026-04-15 18:06 | 0.68034 | 93.03193 | 36889 ft | 482 kts | 116° |
| 2026-04-15 18:07 | 0.65103 | 93.09210 | 36892 ft | 482 kts | 116° |
| 2026-04-15 18:07 | 0.62167 | 93.15236 | 36887 ft | 482 kts | 116° |
| 2026-04-15 18:08 | 0.59232 | 93.21258 | 36889 ft | 482 kts | 116° |
| 2026-04-15 18:08 | 0.56295 | 93.27286 | 36886 ft | 482 kts | 116° |
| 2026-04-15 18:09 | 0.53382 | 93.33263 | 36888 ft | 482 kts | 116° |
| 2026-04-15 18:09 | 0.50445 | 93.39291 | 36888 ft | 482 kts | 116° |
| 2026-04-15 18:10 | 0.47511 | 93.45312 | 36881 ft | 482 kts | 116° |
| 2026-04-15 18:10 | 0.44574 | 93.51337 | 36884 ft | 482 kts | 116° |
| 2026-04-15 18:11 | 0.41639 | 93.57362 | 36887 ft | 482 kts | 116° |
| 2026-04-15 18:11 | 0.38723 | 93.63346 | 36885 ft | 482 kts | 116° |
| 2026-04-15 18:12 | 0.35787 | 93.69369 | 36890 ft | 482 kts | 116° |
| 2026-04-15 18:12 | 0.32841 | 93.75394 | 36887 ft | 482 kts | 116° |
| 2026-04-15 18:13 | 0.29896 | 93.81413 | 36889 ft | 482 kts | 116° |
| 2026-04-15 18:14 | 0.25477 | 93.90452 | 36883 ft | 482 kts | 116° |
| 2026-04-15 18:14 | 0.22553 | 93.96434 | 36887 ft | 483 kts | 116° |
| 2026-04-15 18:15 | 0.19608 | 94.02460 | 36880 ft | 483 kts | 116° |
| 2026-04-15 18:15 | 0.16659 | 94.08493 | 36884 ft | 483 kts | 116° |
| 2026-04-15 18:16 | 0.13710 | 94.14527 | 36885 ft | 483 kts | 116° |
| 2026-04-15 18:16 | 0.10759 | 94.20564 | 36888 ft | 483 kts | 116° |
| 2026-04-15 18:17 | 0.07808 | 94.26602 | 36880 ft | 482 kts | 116° |
| 2026-04-15 18:17 | 0.04886 | 94.32580 | 36880 ft | 482 kts | 116° |
| 2026-04-15 18:18 | 0.01930 | 94.38628 | 36876 ft | 481 kts | 116° |
| 2026-04-15 18:18 | -0.00987 | 94.44595 | 36857 ft | 481 kts | 116° |
| 2026-04-15 18:19 | -0.03924 | 94.50603 | 36885 ft | 481 kts | 116° |
| 2026-04-15 18:19 | -0.06865 | 94.56621 | 36880 ft | 482 kts | 116° |
| 2026-04-15 18:20 | -0.09813 | 94.62652 | 36882 ft | 482 kts | 116° |
| 2026-04-15 18:20 | -0.12758 | 94.68676 | 36879 ft | 483 kts | 116° |
| 2026-04-15 18:21 | -0.15702 | 94.74702 | 36877 ft | 483 kts | 116° |
| 2026-04-15 18:21 | -0.18647 | 94.80727 | 36874 ft | 483 kts | 116° |
| 2026-04-15 18:22 | -0.21574 | 94.86716 | 36878 ft | 482 kts | 116° |
| 2026-04-15 18:22 | -0.24523 | 94.92749 | 36877 ft | 482 kts | 116° |
| 2026-04-15 18:23 | -0.26974 | 94.97766 | 36883 ft | 482 kts | 116° |
| 2026-04-15 18:23 | -0.29911 | 95.03776 | 36873 ft | 481 kts | 116° |
| 2026-04-15 18:24 | -0.32842 | 95.09773 | 36880 ft | 480 kts | 116° |
| 2026-04-15 18:24 | -0.35772 | 95.15764 | 36881 ft | 479 kts | 116° |
| 2026-04-15 18:25 | -0.38702 | 95.21750 | 36859 ft | 479 kts | 116° |
| 2026-04-15 18:25 | -0.41629 | 95.27735 | 36883 ft | 480 kts | 116° |
| 2026-04-15 18:26 | -0.44543 | 95.33693 | 36887 ft | 482 kts | 116° |
| 2026-04-15 18:26 | -0.47488 | 95.39718 | 36881 ft | 482 kts | 116° |
| 2026-04-15 18:27 | -0.50427 | 95.45729 | 36878 ft | 481 kts | 116° |
| 2026-04-15 18:27 | -0.53363 | 95.51733 | 36884 ft | 480 kts | 116° |
| 2026-04-15 18:28 | -0.56293 | 95.57726 | 36875 ft | 479 kts | 116° |
| 2026-04-15 18:28 | -0.59212 | 95.63695 | 36865 ft | 478 kts | 116° |
| 2026-04-15 18:29 | -0.62111 | 95.69625 | 36863 ft | 478 kts | 116° |
| 2026-04-15 18:29 | -0.65026 | 95.75587 | 36867 ft | 477 kts | 116° |
| 2026-04-15 18:30 | -0.67935 | 95.81539 | 36879 ft | 476 kts | 116° |
| 2026-04-15 18:30 | -0.70840 | 95.87480 | 36876 ft | 476 kts | 116° |
| 2026-04-15 18:31 | -0.73748 | 95.93430 | 36864 ft | 476 kts | 116° |
| 2026-04-15 18:31 | -0.76655 | 95.99377 | 36864 ft | 476 kts | 116° |
| 2026-04-15 18:32 | -0.79551 | 96.05299 | 36883 ft | 477 kts | 116° |
| 2026-04-15 18:32 | -0.82487 | 96.11306 | 36866 ft | 478 kts | 116° |
| 2026-04-15 18:33 | -0.85392 | 96.17250 | 36881 ft | 479 kts | 116° |
| 2026-04-15 18:33 | -0.88317 | 96.23236 | 36882 ft | 480 kts | 116° |
| 2026-04-15 18:34 | -0.91257 | 96.29252 | 36881 ft | 481 kts | 116° |
| 2026-04-15 18:34 | -0.94189 | 96.35250 | 36867 ft | 481 kts | 116° |
| 2026-04-15 18:35 | -0.97129 | 96.41267 | 36864 ft | 481 kts | 116° |
| 2026-04-15 18:35 | -1.00066 | 96.47278 | 36879 ft | 481 kts | 116° |
| 2026-04-15 18:36 | -1.02992 | 96.53267 | 36870 ft | 480 kts | 116° |
| 2026-04-15 18:36 | -1.05899 | 96.59216 | 36872 ft | 478 kts | 116° |
| 2026-04-15 18:37 | -1.08817 | 96.65190 | 36872 ft | 477 kts | 116° |
| 2026-04-15 18:37 | -1.11723 | 96.71138 | 36872 ft | 476 kts | 116° |
| 2026-04-15 18:38 | -1.14635 | 96.77100 | 36869 ft | 476 kts | 116° |
| 2026-04-15 18:38 | -1.17540 | 96.83047 | 36887 ft | 477 kts | 116° |
| 2026-04-15 18:39 | -1.20453 | 96.89011 | 36864 ft | 478 kts | 116° |
| 2026-04-15 18:39 | -1.23377 | 96.94998 | 36869 ft | 480 kts | 116° |
| 2026-04-15 18:40 | -1.26310 | 97.01003 | 36865 ft | 481 kts | 116° |
| 2026-04-15 18:40 | -1.29229 | 97.06981 | 36869 ft | 482 kts | 116° |
| 2026-04-15 18:41 | -1.32166 | 97.12997 | 36886 ft | 482 kts | 116° |
| 2026-04-15 18:41 | -1.35099 | 97.19014 | 36866 ft | 482 kts | 116° |
| 2026-04-15 18:42 | -1.38043 | 97.25034 | 36870 ft | 482 kts | 116° |
| 2026-04-15 18:42 | -1.40982 | 97.31051 | 36871 ft | 481 kts | 116° |
| 2026-04-15 18:43 | -1.43917 | 97.37066 | 36872 ft | 481 kts | 116° |
| 2026-04-15 18:43 | -1.46847 | 97.43069 | 36872 ft | 480 kts | 116° |
| 2026-04-15 18:44 | -1.49778 | 97.49075 | 36869 ft | 480 kts | 116° |
| 2026-04-15 18:44 | -1.52709 | 97.55082 | 36862 ft | 480 kts | 116° |
| 2026-04-15 18:45 | -1.55615 | 97.61038 | 36887 ft | 480 kts | 116° |
| 2026-04-15 18:45 | -1.58540 | 97.67034 | 36864 ft | 478 kts | 116° |
| 2026-04-15 18:46 | -1.61422 | 97.73003 | 36868 ft | 477 kts | 115° |
| 2026-04-15 18:46 | -1.64250 | 97.78985 | 36869 ft | 475 kts | 115° |
| 2026-04-15 18:47 | -1.67070 | 97.84964 | 36869 ft | 475 kts | 115° |
| 2026-04-15 18:47 | -1.69891 | 97.90928 | 36873 ft | 474 kts | 115° |
| 2026-04-15 18:48 | -1.72710 | 97.96877 | 36873 ft | 474 kts | 115° |
| 2026-04-15 18:48 | -1.75538 | 98.02845 | 36867 ft | 474 kts | 115° |
| 2026-04-15 18:49 | -1.78340 | 98.08759 | 36873 ft | 474 kts | 115° |
| 2026-04-15 18:49 | -1.81158 | 98.14708 | 36870 ft | 474 kts | 115° |
| 2026-04-15 18:50 | -1.83985 | 98.20677 | 36869 ft | 474 kts | 115° |
| 2026-04-15 18:50 | -1.86805 | 98.26632 | 36871 ft | 474 kts | 115° |
| 2026-04-15 18:51 | -1.89628 | 98.32594 | 36870 ft | 474 kts | 115° |
| 2026-04-15 18:51 | -1.92449 | 98.38550 | 36865 ft | 474 kts | 115° |
| 2026-04-15 18:52 | -1.95190 | 98.44341 | 36891 ft | 467 kts | 115° |
| 2026-04-15 18:52 | -1.97998 | 98.50271 | 36890 ft | 476 kts | 115° |
| 2026-04-15 18:53 | -2.00841 | 98.56279 | 36867 ft | 478 kts | 115° |
| 2026-04-15 18:53 | -2.03684 | 98.62286 | 36870 ft | 478 kts | 115° |
| 2026-04-15 18:54 | -2.06520 | 98.68277 | 36868 ft | 477 kts | 115° |
| 2026-04-15 18:54 | -2.09351 | 98.74262 | 36864 ft | 476 kts | 115° |
| 2026-04-15 18:55 | -2.12182 | 98.80244 | 36871 ft | 475 kts | 115° |
| 2026-04-15 18:55 | -2.15004 | 98.86211 | 36872 ft | 475 kts | 115° |
| 2026-04-15 18:56 | -2.17833 | 98.92191 | 36873 ft | 475 kts | 115° |
| 2026-04-15 18:56 | -2.20638 | 98.98123 | 36868 ft | 475 kts | 115° |
| 2026-04-15 18:57 | -2.23466 | 99.04102 | 36867 ft | 475 kts | 115° |
| 2026-04-15 18:57 | -2.26292 | 99.10079 | 36869 ft | 476 kts | 115° |
| 2026-04-15 18:58 | -2.29122 | 99.16065 | 36871 ft | 476 kts | 115° |
| 2026-04-15 18:58 | -2.31953 | 99.22055 | 36872 ft | 476 kts | 115° |
| 2026-04-15 18:59 | -2.34782 | 99.28041 | 36869 ft | 476 kts | 115° |
| 2026-04-15 18:59 | -2.37614 | 99.34035 | 36867 ft | 476 kts | 115° |
| 2026-04-15 19:00 | -2.40445 | 99.40026 | 36870 ft | 476 kts | 115° |
| 2026-04-15 19:00 | -2.43257 | 99.45979 | 36872 ft | 476 kts | 115° |
| 2026-04-15 19:01 | -2.46058 | 99.52028 | 36868 ft | 476 kts | 110° |
| 2026-04-15 19:01 | -2.47817 | 99.58352 | 36871 ft | 476 kts | 100° |
| 2026-04-15 19:02 | -2.48452 | 99.64934 | 36867 ft | 476 kts | 93° |
| 2026-04-15 19:02 | -2.48785 | 99.71556 | 36873 ft | 477 kts | 93° |
| 2026-04-15 19:03 | -2.49128 | 99.78180 | 36867 ft | 478 kts | 93° |
| 2026-04-15 19:03 | -2.49501 | 99.84814 | 36871 ft | 478 kts | 93° |
| 2026-04-15 19:04 | -2.49887 | 99.91443 | 36868 ft | 477 kts | 93° |
| 2026-04-15 19:04 | -2.50274 | 99.98044 | 36867 ft | 475 kts | 93° |
| 2026-04-15 19:05 | -2.50658 | 100.04636 | 36868 ft | 474 kts | 93° |
| 2026-04-15 19:05 | -2.51040 | 100.11212 | 36868 ft | 473 kts | 93° |
| 2026-04-15 19:06 | -2.51420 | 100.17778 | 36868 ft | 473 kts | 93° |
| 2026-04-15 19:06 | -2.51801 | 100.24339 | 36870 ft | 473 kts | 93° |
| 2026-04-15 19:07 | -2.52181 | 100.30903 | 36872 ft | 473 kts | 93° |
| 2026-04-15 19:07 | -2.52558 | 100.37431 | 36869 ft | 473 kts | 93° |
| 2026-04-15 19:08 | -2.52938 | 100.43998 | 36863 ft | 474 kts | 93° |
| 2026-04-15 19:08 | -2.53318 | 100.50576 | 36869 ft | 474 kts | 93° |
| 2026-04-15 19:09 | -2.53698 | 100.57159 | 36869 ft | 474 kts | 93° |
| 2026-04-15 19:09 | -2.54078 | 100.63749 | 36864 ft | 474 kts | 93° |
| 2026-04-15 19:10 | -2.54458 | 100.70343 | 36865 ft | 475 kts | 93° |
| 2026-04-15 19:10 | -2.54837 | 100.76935 | 36868 ft | 475 kts | 93° |
| 2026-04-15 19:11 | -2.55152 | 100.82413 | 36867 ft | 475 kts | 93° |
| 2026-04-15 19:11 | -2.55531 | 100.89005 | 36865 ft | 475 kts | 93° |
| 2026-04-15 19:12 | -2.55909 | 100.95597 | 36867 ft | 475 kts | 93° |
| 2026-04-15 19:12 | -2.56288 | 101.02189 | 36876 ft | 475 kts | 93° |
| 2026-04-15 19:13 | -2.56665 | 101.08779 | 36876 ft | 474 kts | 93° |
| 2026-04-15 19:13 | -2.57040 | 101.15323 | 36873 ft | 474 kts | 93° |
| 2026-04-15 19:14 | -2.57416 | 101.21910 | 36875 ft | 474 kts | 93° |
| 2026-04-15 19:14 | -2.57793 | 101.28496 | 36876 ft | 474 kts | 93° |
| 2026-04-15 19:15 | -2.58169 | 101.35082 | 36882 ft | 474 kts | 93° |
| 2026-04-15 19:15 | -2.58544 | 101.41662 | 36881 ft | 474 kts | 93° |
| 2026-04-15 19:16 | -2.58920 | 101.48248 | 36898 ft | 474 kts | 93° |
| 2026-04-15 19:16 | -2.59294 | 101.54826 | 36905 ft | 474 kts | 93° |
| 2026-04-15 19:17 | -2.59668 | 101.61400 | 36921 ft | 473 kts | 93° |
| 2026-04-15 19:17 | -2.60042 | 101.67974 | 36919 ft | 473 kts | 93° |
| 2026-04-15 19:18 | -2.60414 | 101.74547 | 36919 ft | 474 kts | 93° |
| 2026-04-15 19:18 | -2.60974 | 101.84399 | 36937 ft | 476 kts | 93° |
| 2026-04-15 19:19 | -2.61349 | 101.91014 | 36946 ft | 477 kts | 93° |
| 2026-04-15 19:19 | -2.61724 | 101.97650 | 36941 ft | 477 kts | 93° |
| 2026-04-15 19:20 | -2.62099 | 102.04277 | 36945 ft | 478 kts | 93° |
| 2026-04-15 19:20 | -2.62474 | 102.10922 | 36936 ft | 479 kts | 93° |
| 2026-04-15 19:21 | -2.62853 | 102.17584 | 36946 ft | 480 kts | 94° |
| 2026-04-15 19:21 | -2.63463 | 102.24234 | 36929 ft | 480 kts | 96° |
| 2026-04-15 19:22 | -2.64201 | 102.30880 | 36923 ft | 481 kts | 96° |
| 2026-04-15 19:22 | -2.64918 | 102.37521 | 36909 ft | 481 kts | 96° |
| 2026-04-15 19:23 | -2.65607 | 102.44188 | 36905 ft | 481 kts | 96° |
| 2026-04-15 19:23 | -2.66278 | 102.50795 | 36890 ft | 480 kts | 96° |
| 2026-04-15 19:24 | -2.66951 | 102.57439 | 36886 ft | 480 kts | 96° |
| 2026-04-15 19:24 | -2.67624 | 102.64070 | 36877 ft | 479 kts | 96° |
| 2026-04-15 19:25 | -2.68297 | 102.70699 | 36883 ft | 478 kts | 96° |
| 2026-04-15 19:25 | -2.68969 | 102.77313 | 36875 ft | 478 kts | 96° |
| 2026-04-15 19:26 | -2.69640 | 102.83928 | 36874 ft | 477 kts | 96° |
| 2026-04-15 19:26 | -2.70310 | 102.90526 | 36874 ft | 476 kts | 96° |
| 2026-04-15 19:27 | -2.70977 | 102.97110 | 36870 ft | 476 kts | 96° |
| 2026-04-15 19:27 | -2.71645 | 103.03700 | 36869 ft | 475 kts | 96° |
| 2026-04-15 19:28 | -2.72306 | 103.10231 | 36871 ft | 475 kts | 96° |
| 2026-04-15 19:28 | -2.72972 | 103.16810 | 36880 ft | 475 kts | 96° |
| 2026-04-15 19:29 | -2.73636 | 103.23378 | 36872 ft | 474 kts | 96° |
| 2026-04-15 19:29 | -2.74300 | 103.29943 | 36873 ft | 474 kts | 96° |
| 2026-04-15 19:30 | -2.74963 | 103.36507 | 36873 ft | 474 kts | 96° |
| 2026-04-15 19:30 | -2.75626 | 103.43066 | 36873 ft | 474 kts | 96° |
| 2026-04-15 19:31 | -2.76288 | 103.49625 | 36877 ft | 474 kts | 96° |
| 2026-04-15 19:31 | -2.76947 | 103.56165 | 36876 ft | 473 kts | 96° |
| 2026-04-15 19:32 | -2.77603 | 103.62672 | 36870 ft | 471 kts | 96° |
| 2026-04-15 19:32 | -2.78260 | 103.69189 | 36870 ft | 470 kts | 96° |
| 2026-04-15 19:33 | -2.78915 | 103.75696 | 36870 ft | 469 kts | 96° |
| 2026-04-15 19:33 | -2.79570 | 103.82202 | 36871 ft | 469 kts | 96° |
| 2026-04-15 19:34 | -2.80222 | 103.88687 | 36860 ft | 469 kts | 96° |
| 2026-04-15 19:34 | -2.80873 | 103.95163 | 36869 ft | 471 kts | 96° |
| 2026-04-15 19:35 | -2.81529 | 104.01690 | 36875 ft | 472 kts | 96° |
| 2026-04-15 19:35 | -2.82188 | 104.08248 | 36874 ft | 474 kts | 96° |
| 2026-04-15 19:36 | -2.82846 | 104.14808 | 36869 ft | 475 kts | 96° |
| 2026-04-15 19:36 | -2.83506 | 104.21390 | 36867 ft | 475 kts | 96° |
| 2026-04-15 19:37 | -2.84167 | 104.27978 | 36865 ft | 476 kts | 96° |
| 2026-04-15 19:37 | -2.84826 | 104.34559 | 36869 ft | 476 kts | 96° |
| 2026-04-15 19:38 | -2.85482 | 104.41109 | 36866 ft | 476 kts | 96° |
| 2026-04-15 19:38 | -2.86141 | 104.47702 | 36865 ft | 476 kts | 96° |
| 2026-04-15 19:39 | -2.86805 | 104.54337 | 36862 ft | 476 kts | 96° |
| 2026-04-15 19:39 | -2.87503 | 104.60876 | 36853 ft | 475 kts | 101° |
| 2026-04-15 19:40 | -2.89736 | 104.67048 | 36860 ft | 474 kts | 119° |
| 2026-04-15 19:40 | -2.93644 | 104.72343 | 36861 ft | 474 kts | 130° |
| 2026-04-15 19:41 | -2.97972 | 104.77334 | 36856 ft | 475 kts | 130° |
| 2026-04-15 19:41 | -3.02293 | 104.82357 | 36863 ft | 476 kts | 130° |
| 2026-04-15 19:42 | -3.06584 | 104.87418 | 36866 ft | 477 kts | 129° |
| 2026-04-15 19:42 | -3.10872 | 104.92504 | 36877 ft | 478 kts | 129° |
| 2026-04-15 19:43 | -3.15131 | 104.97557 | 36873 ft | 478 kts | 129° |
| 2026-04-15 19:43 | -3.19409 | 105.02631 | 36873 ft | 477 kts | 129° |
| 2026-04-15 19:44 | -3.23687 | 105.07703 | 36871 ft | 476 kts | 129° |
| 2026-04-15 19:44 | -3.27960 | 105.12769 | 36873 ft | 476 kts | 129° |
| 2026-04-15 19:45 | -3.32228 | 105.17832 | 36877 ft | 475 kts | 129° |
| 2026-04-15 19:45 | -3.36489 | 105.22886 | 36877 ft | 475 kts | 129° |
| 2026-04-15 19:46 | -3.40748 | 105.27939 | 36877 ft | 475 kts | 129° |
| 2026-04-15 19:46 | -3.44986 | 105.32967 | 36877 ft | 475 kts | 129° |
| 2026-04-15 19:47 | -3.49243 | 105.38020 | 36880 ft | 475 kts | 129° |
| 2026-04-15 19:47 | -3.53506 | 105.43081 | 36880 ft | 475 kts | 129° |
| 2026-04-15 19:48 | -3.57760 | 105.48131 | 36877 ft | 475 kts | 129° |
| 2026-04-15 19:48 | -3.62030 | 105.53201 | 36874 ft | 475 kts | 129° |
| 2026-04-15 19:49 | -3.66291 | 105.58259 | 36877 ft | 475 kts | 129° |
| 2026-04-15 19:49 | -3.70555 | 105.63322 | 36874 ft | 476 kts | 129° |
| 2026-04-15 19:50 | -3.74794 | 105.68357 | 36879 ft | 476 kts | 129° |
| 2026-04-15 19:50 | -3.79062 | 105.73429 | 36877 ft | 476 kts | 129° |
| 2026-04-15 19:51 | -3.83330 | 105.78500 | 36878 ft | 476 kts | 129° |
| 2026-04-15 19:51 | -3.87607 | 105.83583 | 36877 ft | 476 kts | 129° |
| 2026-04-15 19:52 | -3.91876 | 105.88659 | 36878 ft | 476 kts | 129° |
| 2026-04-15 19:52 | -3.96143 | 105.93734 | 36878 ft | 476 kts | 129° |
| 2026-04-15 19:53 | -4.00385 | 105.98779 | 36877 ft | 476 kts | 129° |
| 2026-04-15 19:53 | -4.04623 | 106.03895 | 36871 ft | 476 kts | 125° |
| 2026-04-15 19:54 | -4.08079 | 106.09554 | 36883 ft | 476 kts | 118° |
| 2026-04-15 19:54 | -4.11266 | 106.15381 | 36883 ft | 478 kts | 118° |
| 2026-04-15 19:55 | -4.14529 | 106.21213 | 36884 ft | 479 kts | 119° |
| 2026-04-15 19:55 | -4.17863 | 106.27015 | 36880 ft | 480 kts | 120° |
| 2026-04-15 19:56 | -4.21216 | 106.32804 | 36881 ft | 481 kts | 120° |
| 2026-04-15 19:56 | -4.24551 | 106.38563 | 36872 ft | 481 kts | 120° |
| 2026-04-15 19:57 | -4.27904 | 106.44363 | 36878 ft | 481 kts | 120° |
| 2026-04-15 19:57 | -4.31253 | 106.50162 | 36878 ft | 481 kts | 120° |
| 2026-04-15 19:58 | -4.34613 | 106.55980 | 36882 ft | 481 kts | 120° |
| 2026-04-15 19:58 | -4.37396 | 106.60801 | 36880 ft | 481 kts | 120° |
| 2026-04-15 19:59 | -4.40740 | 106.66595 | 36878 ft | 481 kts | 120° |
| 2026-04-15 19:59 | -4.44092 | 106.72403 | 36880 ft | 481 kts | 120° |
| 2026-04-15 20:00 | -4.47407 | 106.78147 | 36886 ft | 481 kts | 120° |
| 2026-04-15 20:00 | -4.50768 | 106.83975 | 36883 ft | 481 kts | 120° |
| 2026-04-15 20:01 | -4.54117 | 106.89781 | 36879 ft | 481 kts | 120° |
| 2026-04-15 20:01 | -4.57464 | 106.95588 | 36878 ft | 481 kts | 120° |
| 2026-04-15 20:02 | -4.60794 | 107.01363 | 36881 ft | 480 kts | 121° |
| 2026-04-15 20:02 | -4.62790 | 107.04021 | 36876 ft | 478 kts | 136° |
| 2026-04-15 20:02 | -4.65439 | 107.06029 | 36882 ft | 480 kts | 150° |
| 2026-04-15 20:03 | -4.68505 | 107.07344 | 36876 ft | 481 kts | 165° |
| 2026-04-15 20:03 | -4.71774 | 107.08054 | 36882 ft | 482 kts | 168° |
| 2026-04-15 20:03 | -4.78385 | 107.09317 | 36886 ft | 484 kts | 168° |
| 2026-04-15 20:04 | -4.85019 | 107.10632 | 36887 ft | 486 kts | 168° |
| 2026-04-15 20:04 | -4.91701 | 107.12022 | 36061 ft | 498 kts | 167° |
| 2026-04-15 20:05 | -4.95051 | 107.12729 | 35305 ft | 486 kts | 167° |
| 2026-04-15 20:05 | -4.98351 | 107.13426 | 34412 ft | 484 kts | 167° |
| 2026-04-15 20:05 | -5.01654 | 107.14124 | 33433 ft | 486 kts | 167° |
| 2026-04-15 20:05 | -5.04937 | 107.14816 | 32413 ft | 476 kts | 167° |
| 2026-04-15 20:06 | -5.08152 | 107.15493 | 31463 ft | 468 kts | 167° |
| 2026-04-15 20:06 | -5.11270 | 107.16149 | 30578 ft | 461 kts | 167° |
| 2026-04-15 20:06 | -5.14435 | 107.16815 | 29930 ft | 467 kts | 166° |
| 2026-04-15 20:06 | -5.17655 | 107.17495 | 29137 ft | 479 kts | 166° |
| 2026-04-15 20:07 | -5.20943 | 107.18188 | 28396 ft | 484 kts | 167° |
| 2026-04-15 20:07 | -5.24224 | 107.18878 | 27690 ft | 480 kts | 167° |
| 2026-04-15 20:07 | -5.27492 | 107.19566 | 26997 ft | 476 kts | 167° |
| 2026-04-15 20:07 | -5.30717 | 107.20244 | 26322 ft | 472 kts | 167° |
| 2026-04-15 20:08 | -5.33906 | 107.20943 | 25644 ft | 466 kts | 163° |
| 2026-04-15 20:08 | -5.36886 | 107.22141 | 24961 ft | 460 kts | 147° |
| 2026-04-15 20:08 | -5.39439 | 107.24004 | 24341 ft | 451 kts | 141° |
| 2026-04-15 20:08 | -5.41927 | 107.25897 | 23679 ft | 447 kts | 142° |
| 2026-04-15 20:09 | -5.44427 | 107.27759 | 22948 ft | 446 kts | 143° |
| 2026-04-15 20:09 | -5.46926 | 107.29586 | 22285 ft | 442 kts | 143° |
| 2026-04-15 20:09 | -5.49418 | 107.31388 | 22078 ft | 445 kts | 143° |
| 2026-04-15 20:09 | -5.51897 | 107.33171 | 21632 ft | 428 kts | 143° |
| 2026-04-15 20:10 | -5.54240 | 107.34851 | 20642 ft | 412 kts | 143° |
| 2026-04-15 20:10 | -5.56545 | 107.36504 | 19734 ft | 401 kts | 143° |
| 2026-04-15 20:10 | -5.58816 | 107.38134 | 19203 ft | 400 kts | 143° |
| 2026-04-15 20:10 | -5.61092 | 107.39770 | 18621 ft | 405 kts | 143° |
| 2026-04-15 20:11 | -5.63418 | 107.41441 | 17989 ft | 414 kts | 143° |
| 2026-04-15 20:11 | -5.65771 | 107.43133 | 17307 ft | 417 kts | 143° |
| 2026-04-15 20:11 | -5.68131 | 107.44830 | 16694 ft | 415 kts | 143° |
| 2026-04-15 20:11 | -5.70440 | 107.46489 | 16087 ft | 412 kts | 143° |
| 2026-04-15 20:12 | -5.72760 | 107.48158 | 15488 ft | 409 kts | 143° |
| 2026-04-15 20:12 | -5.75072 | 107.49820 | 14890 ft | 407 kts | 143° |
| 2026-04-15 20:12 | -5.77341 | 107.51452 | 14192 ft | 390 kts | 143° |
| 2026-04-15 20:12 | -5.79478 | 107.52988 | 13623 ft | 368 kts | 143° |
| 2026-04-15 20:13 | -5.81558 | 107.54485 | 13059 ft | 370 kts | 144° |
| 2026-04-15 20:13 | -5.83666 | 107.56002 | 12498 ft | 375 kts | 144° |
| 2026-04-15 20:13 | -5.85811 | 107.57546 | 11911 ft | 381 kts | 144° |
| 2026-04-15 20:13 | -5.87953 | 107.59088 | 11443 ft | 378 kts | 144° |
| 2026-04-15 20:14 | -5.90053 | 107.60597 | 11297 ft | 363 kts | 144° |
| 2026-04-15 20:14 | -5.92201 | 107.61768 | 11121 ft | 345 kts | 163° |
| 2026-04-15 20:14 | -5.94532 | 107.62030 | 10995 ft | 334 kts | 185° |
| 2026-04-15 20:14 | -5.96724 | 107.61498 | 10774 ft | 327 kts | 203° |
| 2026-04-15 20:15 | -5.98674 | 107.60414 | 10501 ft | 312 kts | 216° |
| 2026-04-15 20:15 | -6.00213 | 107.58951 | 10243 ft | 300 kts | 234° |
| 2026-04-15 20:15 | -6.01347 | 107.57218 | 10028 ft | 294 kts | 237° |
| 2026-04-15 20:15 | -6.02439 | 107.55496 | 9780 ft | 290 kts | 237° |
| 2026-04-15 20:16 | -6.03523 | 107.53797 | 9517 ft | 286 kts | 237° |
| 2026-04-15 20:16 | -6.04601 | 107.52127 | 9254 ft | 283 kts | 237° |
| 2026-04-15 20:16 | -6.05670 | 107.50484 | 9021 ft | 280 kts | 237° |
| 2026-04-15 20:16 | -6.06733 | 107.48856 | 8793 ft | 278 kts | 237° |
| 2026-04-15 20:17 | -6.07794 | 107.47233 | 8544 ft | 276 kts | 236° |
| 2026-04-15 20:17 | -6.08846 | 107.45622 | 8324 ft | 275 kts | 236° |
| 2026-04-15 20:17 | -6.09882 | 107.44034 | 8100 ft | 274 kts | 236° |
| 2026-04-15 20:17 | -6.10923 | 107.42439 | 7865 ft | 273 kts | 236° |
| 2026-04-15 20:18 | -6.11965 | 107.40841 | 7647 ft | 272 kts | 236° |
| 2026-04-15 20:18 | -6.13002 | 107.39251 | 7429 ft | 272 kts | 237° |
| 2026-04-15 20:18 | -6.14040 | 107.37659 | 7193 ft | 272 kts | 237° |
| 2026-04-15 20:18 | -6.15063 | 107.36090 | 6975 ft | 272 kts | 237° |
| 2026-04-15 20:19 | -6.16112 | 107.34481 | 6740 ft | 272 kts | 237° |
| 2026-04-15 20:19 | -6.17151 | 107.32888 | 6503 ft | 272 kts | 237° |
| 2026-04-15 20:19 | -6.18186 | 107.31301 | 6284 ft | 272 kts | 237° |
| 2026-04-15 20:19 | -6.19206 | 107.29699 | 6039 ft | 268 kts | 242° |
| 2026-04-15 20:20 | -6.19658 | 107.27922 | 5768 ft | 261 kts | 269° |
| 2026-04-15 20:20 | -6.19639 | 107.26099 | 5561 ft | 264 kts | 270° |
| 2026-04-15 20:20 | -6.19638 | 107.24238 | 5325 ft | 269 kts | 270° |
| 2026-04-15 20:20 | -6.19641 | 107.22352 | 5077 ft | 270 kts | 270° |
| 2026-04-15 20:21 | -6.19645 | 107.20496 | 4830 ft | 268 kts | 270° |
| 2026-04-15 20:21 | -6.19650 | 107.18628 | 4580 ft | 266 kts | 270° |
| 2026-04-15 20:21 | -6.19654 | 107.16770 | 4327 ft | 264 kts | 270° |
| 2026-04-15 20:21 | -6.19659 | 107.14926 | 4082 ft | 262 kts | 270° |
| 2026-04-15 20:22 | -6.19665 | 107.13103 | 3845 ft | 260 kts | 270° |
| 2026-04-15 20:22 | -6.19670 | 107.11289 | 3608 ft | 258 kts | 270° |
| 2026-04-15 20:22 | -6.19676 | 107.09501 | 3372 ft | 254 kts | 270° |
| 2026-04-15 20:22 | -6.19681 | 107.07753 | 3147 ft | 251 kts | 270° |
| 2026-04-15 20:23 | -6.19686 | 107.06008 | 2913 ft | 248 kts | 270° |
| 2026-04-15 20:23 | -6.19849 | 107.04317 | 2675 ft | 239 kts | 253° |
| 2026-04-15 20:23 | -6.20431 | 107.02789 | 2542 ft | 229 kts | 247° |
| 2026-04-15 20:23 | -6.21061 | 107.01367 | 2419 ft | 219 kts | 245° |
| 2026-04-15 20:24 | -6.21690 | 106.99993 | 2139 ft | 210 kts | 245° |
| 2026-04-15 20:24 | -6.22812 | 106.97539 | 1642 ft | 177 kts | 245° |
| 2026-04-15 20:24 | -6.23302 | 106.96464 | 1399 ft | 160 kts | 245° |
| 2026-04-15 20:25 | -6.23745 | 106.95493 | 1239 ft | 150 kts | 245° |
| 2026-04-15 20:25 | -6.24185 | 106.94528 | 1041 ft | 152 kts | 245° |
| 2026-04-15 20:25 | -6.24622 | 106.93570 | 832 ft | 150 kts | 245° |
| 2026-04-15 20:25 | -6.25050 | 106.92625 | 660 ft | 148 kts | 245° |
| 2026-04-15 20:26 | -6.25481 | 106.91681 | 460 ft | 149 kts | 245° |
| 2026-04-15 20:26 | -6.25910 | 106.90733 | 250 ft | 149 kts | 245° |
| 2026-04-15 20:26 | -6.26341 | 106.89806 | 92 ft | 138 kts | 245° |
| 2026-04-15 20:26 | -6.26704 | 106.89020 | 86 ft | 108 kts | 245° |
| 2026-04-15 20:27 | -6.26964 | 106.88458 | 78 ft | 73 kts | 244° |
| 2026-04-15 20:27 | -6.27122 | 106.88118 | 81 ft | 36 kts | 245° |
| 2026-04-15 20:27 | -6.27177 | 106.87982 | 83 ft | 8 kts | 269° |
| 2026-04-15 20:27 | -6.27181 | 106.87929 | 84 ft | 6 kts | 235° |
| 2026-04-15 20:28 | -6.27192 | 106.87926 | 81 ft | 1 kts | 188° |
| 2026-04-15 20:28 | -6.27197 | 106.87928 | 81 ft | 2 kts | 163° |
| 2026-04-15 20:28 | -6.27201 | 106.87933 | 81 ft | 1 kts | 134° |
| 2026-04-15 20:28 | -6.27203 | 106.87938 | 84 ft | 1 kts | 110° |
| 2026-04-15 20:29 | -6.27198 | 106.87950 | 79 ft | 3 kts | 61° |
| 2026-04-15 20:29 | -6.27183 | 106.87979 | 83 ft | 6 kts | 63° |
| 2026-04-15 20:29 | -6.27163 | 106.88019 | 82 ft | 7 kts | 65° |
| 2026-04-15 20:29 | -6.27139 | 106.88071 | 80 ft | 9 kts | 65° |
| 2026-04-15 20:30 | -6.27111 | 106.88133 | 80 ft | 10 kts | 65° |
| 2026-04-15 20:30 | -6.27078 | 106.88204 | 78 ft | 15 kts | 65° |
| 2026-04-15 20:30 | -6.27024 | 106.88320 | 78 ft | 19 kts | 65° |
| 2026-04-15 20:30 | -6.26968 | 106.88442 | 80 ft | 19 kts | 65° |
| 2026-04-15 20:31 | -6.26912 | 106.88521 | 80 ft | 11 kts | 26° |
| 2026-04-15 20:31 | -6.26841 | 106.88516 | 80 ft | 10 kts | 339° |
| 2026-04-15 20:31 | -6.26778 | 106.88491 | 82 ft | 10 kts | 340° |
| 2026-04-15 20:31 | -6.26716 | 106.88485 | 84 ft | 9 kts | 349° |
| 2026-04-15 20:32 | -6.26695 | 106.88474 | 83 ft | 0 kts | 330° |
| 2026-04-15 20:32 | -6.26682 | 106.88467 | 83 ft | 4 kts | 331° |
| 2026-04-15 20:32 | -6.26677 | 106.88464 | 86 ft | 0 kts | 331° |